Time;durP1;ratioP1;P1;durP2;ratioP2;P2;SDS_P1;SDS_P2;PMS_P1;PMS_P2;Temp;Humidity;BMP_temperature;BMP_pressure;BME280_temperature;BME280_humidity;BME280_pressure;Samples;Min_cycle;Max_cycle;Signal;HPM_P1;HPM_P2
2023/03/10 00:02:20;;;;;;;25.58;12.55;;;1.80;99.90;;;;;;5118082;28;20066;-85
2023/03/10 00:05:07;;;;;;;27.27;14.05;;;1.80;99.90;;;;;;5111471;28;20079;-85
2023/03/10 00:07:53;;;;;;;26.98;12.95;;;1.80;99.90;;;;;;5111340;28;20052;-86
2023/03/10 00:10:39;;;;;;;25.13;12.63;;;1.80;99.90;;;;;;5109766;28;20051;-86
2023/03/10 00:13:26;;;;;;;22.02;11.75;;;1.80;99.90;;;;;;5091995;28;20055;-86
2023/03/10 00:16:18;;;;;;;25.67;12.68;;;1.80;99.90;;;;;;5111235;28;20400;-86
2023/03/10 00:19:04;;;;;;;25.80;12.57;;;1.80;99.90;;;;;;5110478;28;20063;-86
2023/03/10 00:21:50;;;;;;;23.10;11.98;;;1.80;99.90;;;;;;5110751;28;20059;-85
2023/03/10 00:24:36;;;;;;;25.77;13.20;;;1.80;99.90;;;;;;5096336;28;20044;-86
2023/03/10 00:27:22;;;;;;;25.63;14.13;;;1.80;99.90;;;;;;5109324;28;20047;-86
2023/03/10 00:30:08;;;;;;;27.88;15.10;;;1.90;99.90;;;;;;5115664;28;20105;-87
2023/03/10 00:32:54;;;;;;;30.75;13.80;;;1.90;99.90;;;;;;5111359;28;20089;-85
2023/03/10 00:35:40;;;;;;;28.85;14.90;;;1.90;99.90;;;;;;5094949;28;20047;-87
2023/03/10 00:38:28;;;;;;;29.63;15.50;;;2.00;99.90;;;;;;5110743;28;20107;-85
2023/03/10 00:41:19;;;;;;;29.13;15.70;;;2.00;99.90;;;;;;5093552;28;20134;-87
2023/03/10 00:44:08;;;;;;;30.02;14.95;;;2.00;99.90;;;;;;5092129;28;20452;-87
2023/03/10 00:46:54;;;;;;;33.45;15.13;;;2.00;99.90;;;;;;5110563;28;20130;-86
2023/03/10 00:49:40;;;;;;;34.00;17.20;;;2.00;99.90;;;;;;5109624;28;20059;-85
2023/03/10 00:52:29;;;;;;;30.20;14.85;;;2.00;99.90;;;;;;5113832;28;20044;-87
2023/03/10 00:55:16;;;;;;;29.40;15.25;;;2.00;99.90;;;;;;5119910;28;20059;-86
2023/03/10 00:58:02;;;;;;;25.23;12.50;;;2.00;99.90;;;;;;5090805;28;20115;-86
2023/03/10 01:00:48;;;;;;;24.63;12.10;;;2.10;99.90;;;;;;5094654;28;20112;-85
2023/03/10 01:03:34;;;;;;;22.48;12.57;;;2.10;99.90;;;;;;5097799;28;20052;-85
2023/03/10 01:06:21;;;;;;;23.30;11.65;;;2.10;99.90;;;;;;5082302;28;20126;-85
2023/03/10 01:09:07;;;;;;;22.35;11.70;;;2.10;99.90;;;;;;5116408;28;20051;-87
2023/03/10 01:11:53;;;;;;;22.02;11.93;;;2.10;99.90;;;;;;5095488;28;20145;-87
2023/03/10 01:14:39;;;;;;;21.33;11.45;;;2.10;99.90;;;;;;5113089;28;20062;-86
2023/03/10 01:17:25;;;;;;;22.83;11.65;;;2.10;99.90;;;;;;5099082;28;20044;-87
2023/03/10 01:20:14;;;;;;;22.35;11.30;;;2.10;99.90;;;;;;5118735;28;20058;-86
2023/03/10 01:23:00;;;;;;;23.52;12.27;;;2.10;99.90;;;;;;5114392;28;20074;-85
2023/03/10 01:25:46;;;;;;;18.65;10.57;;;2.10;99.90;;;;;;5116238;28;20048;-86
2023/03/10 01:28:32;;;;;;;21.95;11.43;;;2.20;99.90;;;;;;5111990;28;20123;-86
2023/03/10 01:31:18;;;;;;;20.10;11.65;;;2.20;99.90;;;;;;5113820;28;20054;-86
2023/03/10 01:34:04;;;;;;;22.48;11.43;;;2.20;99.90;;;;;;5111324;28;20059;-87
2023/03/10 01:36:50;;;;;;;21.52;10.73;;;2.20;99.90;;;;;;5100861;28;20054;-84
2023/03/10 01:39:36;;;;;;;25.58;11.30;;;2.20;99.90;;;;;;5116553;28;20407;-87
2023/03/10 01:42:22;;;;;;;20.55;11.18;;;2.20;99.90;;;;;;5112430;28;20060;-85
2023/03/10 01:45:14;;;;;;;22.45;10.95;;;2.20;99.90;;;;;;5122388;28;20107;-85
2023/03/10 01:48:01;;;;;;;20.92;11.02;;;2.20;99.90;;;;;;5132453;28;20051;-86
2023/03/10 01:50:51;;;;;;;20.58;11.65;;;2.20;99.90;;;;;;5115248;28;20070;-86
2023/03/10 01:53:38;;;;;;;20.20;10.82;;;2.20;99.90;;;;;;5118738;28;20062;-85
2023/03/10 01:56:25;;;;;;;18.80;9.48;;;2.20;99.90;;;;;;5115443;28;20050;-86
2023/03/10 01:59:12;;;;;;;22.25;10.57;;;2.30;99.90;;;;;;5112964;28;20449;-85
2023/03/10 02:02:00;;;;;;;21.73;10.70;;;2.30;99.90;;;;;;5113367;28;20075;-86
2023/03/10 02:04:47;;;;;;;21.35;10.45;;;2.30;99.90;;;;;;5111844;28;20073;-85
2023/03/10 02:07:35;;;;;;;25.27;12.32;;;2.30;99.90;;;;;;5120691;28;20461;-84
2023/03/10 02:10:21;;;;;;;22.52;11.25;;;2.30;99.90;;;;;;5115973;28;20135;-86
2023/03/10 02:13:07;;;;;;;21.45;11.55;;;2.30;99.90;;;;;;5104945;28;20062;-86
2023/03/10 02:15:53;;;;;;;21.02;11.40;;;2.30;99.90;;;;;;5111815;28;20104;-87
2023/03/10 02:18:43;;;;;;;22.08;11.10;;;2.40;99.90;;;;;;5112365;28;20055;-87
2023/03/10 02:21:34;;;;;;;22.17;10.73;;;2.40;99.90;;;;;;5112766;28;20040;-85
2023/03/10 02:24:26;;;;;;;23.13;11.77;;;2.40;99.90;;;;;;5120483;28;20040;-85
2023/03/10 02:27:13;;;;;;;24.27;12.73;;;2.40;99.90;;;;;;5094878;28;20513;-85
2023/03/10 02:30:26;;;;;;;23.17;11.90;;;2.40;99.90;;;;;;5112171;28;20055;-87
2023/03/10 02:33:33;;;;;;;23.02;12.27;;;2.40;99.90;;;;;;5110763;28;20051;-87
2023/03/10 02:36:22;;;;;;;24.50;12.90;;;2.40;99.90;;;;;;5125389;28;20101;-84
2023/03/10 02:39:08;;;;;;;28.38;13.63;;;2.30;99.90;;;;;;5113557;28;20492;-87
2023/03/10 02:41:54;;;;;;;25.30;12.63;;;2.30;99.90;;;;;;5112787;28;20047;-87
2023/03/10 02:44:41;;;;;;;21.65;11.98;;;2.30;99.90;;;;;;5113309;28;20051;-87
2023/03/10 02:47:27;;;;;;;27.40;14.02;;;2.30;99.90;;;;;;5112075;28;20058;-86
2023/03/10 02:50:16;;;;;;;19.30;11.38;;;2.30;99.90;;;;;;5093209;28;20083;-85
2023/03/10 02:53:13;;;;;;;23.23;11.80;;;2.40;99.90;;;;;;5099662;28;20393;-87
2023/03/10 02:55:59;;;;;;;21.33;12.30;;;2.40;99.90;;;;;;5096151;28;20105;-84
2023/03/10 02:58:45;;;;;;;25.25;12.23;;;2.40;99.90;;;;;;5093723;28;20052;-86
2023/03/10 03:01:31;;;;;;;25.10;12.13;;;2.30;99.90;;;;;;5109794;28;20055;-85
2023/03/10 03:04:17;;;;;;;27.85;13.68;;;2.40;99.90;;;;;;5113606;28;20048;-85
2023/03/10 03:07:03;;;;;;;27.95;12.77;;;2.40;99.90;;;;;;5118454;28;20058;-85
2023/03/10 03:09:49;;;;;;;31.13;14.35;;;2.40;99.90;;;;;;5080156;28;20052;-83
2023/03/10 03:12:35;;;;;;;23.55;12.55;;;2.40;99.90;;;;;;5115130;28;20135;-86
2023/03/10 03:15:22;;;;;;;25.70;12.57;;;2.40;99.90;;;;;;5096075;28;20142;-84
2023/03/10 03:18:09;;;;;;;24.15;12.07;;;2.40;99.90;;;;;;5080619;28;20562;-85
2023/03/10 03:20:55;;;;;;;21.65;10.93;;;2.40;99.90;;;;;;5111943;28;20047;-85
2023/03/10 03:23:42;;;;;;;24.95;12.32;;;2.40;99.90;;;;;;5112877;28;20051;-86
2023/03/10 03:26:28;;;;;;;17.90;10.25;;;2.40;99.90;;;;;;5119675;28;20047;-85
2023/03/10 03:29:14;;;;;;;23.13;11.00;;;2.40;99.90;;;;;;5109903;28;20047;-87
2023/03/10 03:32:00;;;;;;;20.20;11.88;;;2.40;99.90;;;;;;5109618;28;20062;-87
2023/03/10 03:34:46;;;;;;;21.13;10.93;;;2.40;99.90;;;;;;5110509;28;20044;-86
2023/03/10 03:37:32;;;;;;;20.85;11.57;;;2.40;99.90;;;;;;5116022;28;20047;-86
2023/03/10 03:40:20;;;;;;;18.63;10.38;;;2.40;99.90;;;;;;5095931;28;20047;-87
2023/03/10 03:43:06;;;;;;;23.67;11.38;;;2.40;99.90;;;;;;5110785;28;20131;-86
2023/03/10 03:45:52;;;;;;;21.20;11.13;;;2.50;99.90;;;;;;5111092;28;20087;-85
2023/03/10 03:48:38;;;;;;;19.77;11.70;;;2.50;99.90;;;;;;5112380;28;20054;-85
2023/03/10 03:51:24;;;;;;;23.55;11.98;;;2.50;99.90;;;;;;5123305;28;20044;-85
2023/03/10 03:54:10;;;;;;;22.45;11.38;;;2.50;99.90;;;;;;5110626;28;20051;-86
2023/03/10 03:56:56;;;;;;;25.88;13.45;;;2.50;99.90;;;;;;5108811;28;20091;-86
2023/03/10 03:59:42;;;;;;;26.88;13.85;;;2.50;99.90;;;;;;5110560;28;20060;-87
2023/03/10 04:02:28;;;;;;;31.05;14.07;;;2.50;99.90;;;;;;5111352;28;20410;-87
2023/03/10 04:05:15;;;;;;;34.30;16.77;;;2.50;99.90;;;;;;5112986;28;20079;-84
2023/03/10 04:08:01;;;;;;;38.08;17.27;;;2.40;99.90;;;;;;5110320;28;20082;-87
2023/03/10 04:10:54;;;;;;;35.42;17.88;;;2.50;99.90;;;;;;5110290;28;20043;-85
2023/03/10 04:13:40;;;;;;;35.90;19.05;;;2.50;99.90;;;;;;5110870;28;20119;-86
2023/03/10 04:16:27;;;;;;;42.40;19.20;;;2.50;99.90;;;;;;5111546;28;20514;-86
2023/03/10 04:19:13;;;;;;;39.80;18.77;;;2.40;99.90;;;;;;5120528;28;20047;-85
2023/03/10 04:21:59;;;;;;;41.22;19.77;;;2.50;99.90;;;;;;5111097;28;20067;-86
2023/03/10 04:24:45;;;;;;;41.03;18.63;;;2.50;99.90;;;;;;5109095;28;20096;-86
2023/03/10 04:27:31;;;;;;;43.78;22.25;;;2.50;99.90;;;;;;5109977;28;20089;-86
2023/03/10 04:30:17;;;;;;;38.97;18.70;;;2.60;99.90;;;;;;5111559;28;20047;-86
2023/03/10 04:33:03;;;;;;;38.42;20.00;;;2.50;99.90;;;;;;5111092;28;20094;-85
2023/03/10 04:35:50;;;;;;;38.47;19.95;;;2.60;99.90;;;;;;5110874;28;20384;-87
2023/03/10 04:38:36;;;;;;;38.92;20.30;;;2.60;99.90;;;;;;5113669;28;20109;-87
2023/03/10 04:41:23;;;;;;;38.00;18.17;;;2.60;99.90;;;;;;5099431;28;20130;-85
2023/03/10 04:44:10;;;;;;;39.72;19.05;;;2.60;99.90;;;;;;5115518;28;20047;-83
2023/03/10 04:46:56;;;;;;;37.97;18.58;;;2.60;99.90;;;;;;5122163;28;20043;-87
2023/03/10 04:49:42;;;;;;;37.83;18.85;;;2.60;99.90;;;;;;5123698;28;20051;-86
2023/03/10 04:52:29;;;;;;;36.10;16.63;;;2.50;99.90;;;;;;5116440;28;20130;-83
2023/03/10 04:55:14;;;;;;;38.47;18.02;;;2.60;99.90;;;;;;5115480;28;20055;-87
2023/03/10 04:58:01;;;;;;;41.42;17.55;;;2.60;99.90;;;;;;5101020;28;20112;-87
2023/03/10 05:00:47;;;;;;;39.13;18.10;;;2.60;99.90;;;;;;5113650;28;20051;-86
2023/03/10 05:03:33;;;;;;;34.25;17.15;;;2.60;99.90;;;;;;5114318;28;20047;-87
2023/03/10 05:06:20;;;;;;;38.55;16.63;;;2.60;99.90;;;;;;5103606;28;20047;-85
2023/03/10 05:09:06;;;;;;;36.45;16.98;;;2.60;99.90;;;;;;5114734;28;20083;-84
2023/03/10 05:11:53;;;;;;;26.17;14.20;;;2.60;99.90;;;;;;5115392;28;20687;-86
2023/03/10 05:14:39;;;;;;;35.53;15.95;;;2.70;99.90;;;;;;5124044;28;20048;-86
2023/03/10 05:17:27;;;;;;;33.83;16.63;;;2.60;99.90;;;;;;5114377;28;20484;-86
2023/03/10 05:20:14;;;;;;;31.00;16.10;;;2.70;99.90;;;;;;5120412;28;20047;-86
2023/03/10 05:23:00;;;;;;;30.40;15.65;;;2.60;99.90;;;;;;5114290;28;20051;-85
2023/03/10 05:25:46;;;;;;;32.60;15.73;;;2.60;99.90;;;;;;5114407;28;20138;-86
2023/03/10 05:28:33;;;;;;;27.38;13.93;;;2.60;99.90;;;;;;5112107;28;20058;-87
2023/03/10 05:31:24;;;;;;;29.58;15.13;;;2.60;99.90;;;;;;5113479;28;20277;-85
2023/03/10 05:34:10;;;;;;;30.30;15.68;;;2.60;99.90;;;;;;5112130;28;20047;-85
2023/03/10 05:36:56;;;;;;;26.33;13.73;;;2.50;99.90;;;;;;5116884;28;20050;-84
2023/03/10 05:39:43;;;;;;;30.90;14.70;;;2.50;99.90;;;;;;5122911;28;20043;-84
2023/03/10 05:42:29;;;;;;;35.42;16.15;;;2.40;99.90;;;;;;5116154;28;20082;-85
2023/03/10 05:45:16;;;;;;;32.70;15.70;;;2.30;99.90;;;;;;5111889;28;20052;-84
2023/03/10 05:48:03;;;;;;;27.73;14.00;;;2.40;99.90;;;;;;5113420;28;20082;-85
2023/03/10 05:51:05;;;;;;;30.30;14.90;;;2.20;99.90;;;;;;5114017;28;20051;-84
2023/03/10 05:53:51;;;;;;;31.60;15.25;;;2.20;99.90;;;;;;5114726;28;20063;-85
2023/03/10 05:56:37;;;;;;;32.90;16.15;;;2.10;99.90;;;;;;5112730;28;20051;-86
2023/03/10 05:59:25;;;;;;;34.50;15.38;;;2.10;99.90;;;;;;5113159;28;20526;-85
2023/03/10 06:02:11;;;;;;;30.40;14.35;;;2.10;99.90;;;;;;5112322;28;20051;-86
2023/03/10 06:04:57;;;;;;;35.28;15.68;;;2.00;99.90;;;;;;5099524;28;20051;-85
2023/03/10 06:07:43;;;;;;;31.67;16.45;;;2.00;99.90;;;;;;5121221;28;20067;-84
2023/03/10 06:10:29;;;;;;;30.55;15.32;;;2.00;99.90;;;;;;5117932;28;20051;-87
2023/03/10 06:13:18;;;;;;;34.20;14.35;;;2.00;99.90;;;;;;5112574;28;20048;-85
2023/03/10 06:16:05;;;;;;;30.05;14.48;;;2.00;99.90;;;;;;5112026;28;20066;-85
2023/03/10 06:18:53;;;;;;;27.83;13.38;;;2.00;99.90;;;;;;5099661;28;20051;-85
2023/03/10 06:21:43;;;;;;;31.60;13.68;;;1.90;99.90;;;;;;5118253;28;20043;-84
2023/03/10 06:24:29;;;;;;;30.40;13.85;;;1.90;99.90;;;;;;5114032;28;20054;-85
2023/03/10 06:27:15;;;;;;;29.80;14.30;;;1.90;99.90;;;;;;5113556;28;20054;-86
2023/03/10 06:30:01;;;;;;;27.63;14.25;;;1.90;99.90;;;;;;5100886;28;20052;-85
2023/03/10 06:32:47;;;;;;;26.00;12.90;;;2.00;99.90;;;;;;5113468;28;20112;-86
2023/03/10 06:35:33;;;;;;;32.90;14.13;;;1.90;99.90;;;;;;5114454;28;20051;-84
2023/03/10 06:38:20;;;;;;;28.08;13.35;;;1.90;99.90;;;;;;5116862;28;20085;-87
2023/03/10 06:41:06;;;;;;;31.60;14.77;;;1.80;99.90;;;;;;5124612;28;20402;-85
2023/03/10 06:43:52;;;;;;;28.55;14.00;;;1.80;99.90;;;;;;5119082;28;20052;-87
2023/03/10 06:46:38;;;;;;;32.38;14.23;;;1.80;99.90;;;;;;5114173;28;20054;-85
2023/03/10 06:49:29;;;;;;;34.88;14.27;;;1.80;99.90;;;;;;5116464;28;20138;-86
2023/03/10 06:52:15;;;;;;;30.02;13.98;;;1.80;99.90;;;;;;5115792;28;20407;-86
2023/03/10 06:55:01;;;;;;;31.05;13.65;;;1.80;99.90;;;;;;5115202;28;20055;-87
2023/03/10 06:57:47;;;;;;;30.73;14.32;;;1.70;99.90;;;;;;5115694;28;20043;-87
2023/03/10 07:00:33;;;;;;;34.17;13.55;;;1.70;99.90;;;;;;5112792;28;20051;-88
2023/03/10 07:03:19;;;;;;;26.92;13.18;;;1.70;99.90;;;;;;5113878;28;20061;-86
2023/03/10 07:06:06;;;;;;;32.45;14.57;;;1.60;99.90;;;;;;5119235;28;20051;-83
2023/03/10 07:08:53;;;;;;;30.63;13.27;;;1.60;99.90;;;;;;5125744;28;20043;-86
2023/03/10 07:11:39;;;;;;;28.70;13.32;;;1.60;99.90;;;;;;5088380;28;20480;-88
2023/03/10 07:14:25;;;;;;;33.15;14.15;;;1.60;99.90;;;;;;5082266;28;20051;-87
2023/03/10 07:17:11;;;;;;;30.70;13.27;;;1.60;99.90;;;;;;5112060;28;20445;-86
2023/03/10 07:19:57;;;;;;;32.47;15.90;;;1.50;99.90;;;;;;5109912;28;20048;-88
2023/03/10 07:22:43;;;;;;;33.35;14.63;;;1.50;99.90;;;;;;5094534;28;20043;-87
2023/03/10 07:25:30;;;;;;;34.28;15.80;;;1.50;99.90;;;;;;5111649;28;20059;-88
2023/03/10 07:28:16;;;;;;;36.40;16.42;;;1.40;99.90;;;;;;5093619;28;20051;-88
2023/03/10 07:31:03;;;;;;;36.45;15.48;;;1.40;99.90;;;;;;5098313;28;20091;-87
2023/03/10 07:33:49;;;;;;;39.20;16.92;;;1.40;99.90;;;;;;5097422;28;20052;-87
2023/03/10 07:36:35;;;;;;;41.22;18.40;;;1.30;99.90;;;;;;5115209;28;20048;-89
2023/03/10 07:39:21;;;;;;;39.88;17.65;;;1.30;99.90;;;;;;5115943;28;20057;-88
2023/03/10 07:42:07;;;;;;;46.35;20.00;;;1.30;99.90;;;;;;5093247;28;20078;-87
2023/03/10 07:44:53;;;;;;;43.28;18.05;;;1.30;99.90;;;;;;5102168;28;20051;-86
2023/03/10 07:47:39;;;;;;;43.55;18.77;;;1.20;99.90;;;;;;5110663;28;20146;-87
2023/03/10 07:50:25;;;;;;;48.90;20.67;;;1.20;99.90;;;;;;5110572;28;20051;-87
2023/03/10 07:53:11;;;;;;;47.80;21.60;;;1.20;99.90;;;;;;5110563;28;20142;-88
2023/03/10 07:55:58;;;;;;;44.08;19.70;;;1.20;99.90;;;;;;5098536;28;20130;-86
2023/03/10 07:58:44;;;;;;;45.83;20.83;;;1.20;99.90;;;;;;5110425;28;20114;-86
2023/03/10 08:01:30;;;;;;;59.88;22.73;;;1.10;99.90;;;;;;5095884;28;20474;-85
2023/03/10 08:04:16;;;;;;;59.70;25.70;;;1.10;99.90;;;;;;5110443;28;20058;-85
2023/03/10 08:07:03;;;;;;;49.78;23.30;;;1.20;99.90;;;;;;5097246;28;20092;-86
2023/03/10 08:09:50;;;;;;;53.78;24.30;;;1.10;99.90;;;;;;5122032;28;20055;-86
2023/03/10 08:12:36;;;;;;;55.45;25.42;;;1.20;99.90;;;;;;5116365;28;20120;-85
2023/03/10 08:15:22;;;;;;;52.28;22.80;;;1.20;99.90;;;;;;5109495;28;20056;-86
2023/03/10 08:18:08;;;;;;;51.53;23.65;;;1.10;99.90;;;;;;5096588;28;20055;-87
2023/03/10 08:20:55;;;;;;;51.40;22.17;;;1.20;99.90;;;;;;5110975;28;20510;-88
2023/03/10 08:23:41;;;;;;;44.95;20.45;;;1.20;99.90;;;;;;5093439;28;20134;-87
2023/03/10 08:26:27;;;;;;;40.78;16.48;;;1.20;99.90;;;;;;5113733;28;20058;-85
2023/03/10 08:29:13;;;;;;;40.28;18.85;;;1.20;99.90;;;;;;5110293;28;20051;-87
2023/03/10 08:31:59;;;;;;;38.70;18.52;;;1.20;99.90;;;;;;5110274;28;20530;-85
2023/03/10 08:34:46;;;;;;;41.70;18.10;;;1.30;99.90;;;;;;5095178;28;20083;-86
2023/03/10 08:37:32;;;;;;;38.58;16.98;;;1.20;99.90;;;;;;5086782;28;20491;-87
2023/03/10 08:40:18;;;;;;;43.70;19.15;;;1.30;99.90;;;;;;5110751;28;20071;-86
2023/03/10 08:43:05;;;;;;;48.67;19.70;;;1.30;99.90;;;;;;5110852;28;20063;-89
2023/03/10 08:45:51;;;;;;;42.58;19.42;;;1.30;99.90;;;;;;5109959;28;20096;-88
2023/03/10 08:48:37;;;;;;;46.30;20.27;;;1.30;99.90;;;;;;5092171;28;20059;-87
2023/03/10 08:51:24;;;;;;;45.63;20.23;;;1.30;99.90;;;;;;5093442;28;20113;-84
2023/03/10 08:54:12;;;;;;;40.38;18.33;;;1.30;99.90;;;;;;5109638;28;20059;-88
2023/03/10 08:56:58;;;;;;;37.10;15.38;;;1.30;99.90;;;;;;5111924;28;20039;-86
2023/03/10 08:59:44;;;;;;;33.90;15.48;;;1.30;99.90;;;;;;5095826;28;20051;-85
2023/03/10 09:02:30;;;;;;;36.25;14.80;;;1.40;99.90;;;;;;5094081;28;20047;-89
2023/03/10 09:05:16;;;;;;;41.70;15.68;;;1.40;99.90;;;;;;5088352;28;20044;-86
2023/03/10 09:08:03;;;;;;;33.08;14.85;;;1.40;99.90;;;;;;5111260;28;20044;-87
2023/03/10 09:10:49;;;;;;;33.20;14.85;;;1.50;99.90;;;;;;5112173;28;20058;-87
2023/03/10 09:13:35;;;;;;;37.90;17.98;;;1.50;99.90;;;;;;5112826;28;20519;-85
2023/03/10 09:16:21;;;;;;;42.58;19.00;;;1.60;99.90;;;;;;5110674;28;20044;-90
2023/03/10 09:19:07;;;;;;;43.08;15.65;;;1.60;99.90;;;;;;5092613;28;20052;-88
2023/03/10 09:21:56;;;;;;;39.03;16.88;;;1.60;99.90;;;;;;5092380;28;20090;-88
2023/03/10 09:24:42;;;;;;;42.03;18.08;;;1.60;99.90;;;;;;5094541;28;20047;-86
2023/03/10 09:27:28;;;;;;;34.05;16.00;;;1.50;99.90;;;;;;5096710;28;20059;-86
2023/03/10 09:30:14;;;;;;;39.72;15.98;;;1.50;99.90;;;;;;5114574;28;20669;-85
2023/03/10 09:33:00;;;;;;;39.45;17.00;;;1.50;99.90;;;;;;5123637;28;20044;-87
2023/03/10 09:35:48;;;;;;;39.53;17.98;;;1.40;99.90;;;;;;5113444;28;20044;-85
2023/03/10 09:38:34;;;;;;;45.85;19.58;;;1.40;99.90;;;;;;5115516;28;20055;-86
2023/03/10 09:41:29;;;;;;;38.25;19.38;;;1.40;99.90;;;;;;5117104;28;20047;-85
2023/03/10 09:44:24;;;;;;;45.23;19.67;;;1.40;99.90;;;;;;5114046;28;20052;-86
2023/03/10 09:47:12;;;;;;;56.25;20.73;;;1.40;99.90;;;;;;5115446;28;20293;-87
2023/03/10 09:50:26;;;;;;;40.25;17.55;;;1.50;99.90;;;;;;5096542;28;20479;-85
2023/03/10 09:53:30;;;;;;;50.08;18.77;;;1.60;99.90;;;;;;5114165;28;20079;-87
2023/03/10 09:56:19;;;;;;;34.40;15.18;;;1.60;99.90;;;;;;5116061;28;20067;-84
2023/03/10 09:59:15;;;;;;;42.67;18.17;;;1.70;99.90;;;;;;5114964;28;20047;-89
2023/03/10 10:02:14;;;;;;;37.85;15.75;;;1.80;99.90;;;;;;5099418;28;20098;-88
2023/03/10 10:05:06;;;;;;;32.97;14.85;;;1.80;99.90;;;;;;5113202;28;20047;-88
2023/03/10 10:07:56;;;;;;;30.52;12.10;;;1.90;99.90;;;;;;5081428;28;20052;-86
2023/03/10 10:10:43;;;;;;;34.35;13.50;;;2.00;99.90;;;;;;5115193;28;20072;-89
2023/03/10 10:13:29;;;;;;;37.38;15.10;;;2.00;99.90;;;;;;5103284;28;20498;-88
2023/03/10 10:16:29;;;;;;;34.42;14.60;;;2.00;99.90;;;;;;5095317;28;20067;-86
2023/03/10 10:19:18;;;;;;;32.80;11.23;;;2.10;99.90;;;;;;5094000;28;20138;-88
2023/03/10 10:22:16;;;;;;;33.05;13.13;;;2.10;99.90;;;;;;5096044;28;20058;-86
2023/03/10 10:25:09;;;;;;;35.17;15.18;;;2.20;99.90;;;;;;5095164;28;20099;-86
2023/03/10 10:28:03;;;;;;;33.78;14.55;;;2.30;99.90;;;;;;5100412;28;20111;-87
2023/03/10 10:30:49;;;;;;;37.03;16.13;;;2.40;99.90;;;;;;5095877;28;20112;-86
2023/03/10 10:34:00;;;;;;;39.58;16.88;;;2.50;99.90;;;;;;5096996;28;20090;-86
2023/03/10 10:36:55;;;;;;;34.97;14.93;;;2.50;99.90;;;;;;5095665;28;20051;-87
2023/03/10 10:39:42;;;;;;;40.33;15.20;;;2.50;99.90;;;;;;5095999;28;20043;-87
2023/03/10 10:42:32;;;;;;;31.13;14.00;;;2.50;99.90;;;;;;5116017;28;20108;-87
2023/03/10 10:45:34;;;;;;;32.22;14.25;;;2.50;99.90;;;;;;5114465;28;20051;-86
2023/03/10 10:48:35;;;;;;;40.58;13.98;;;2.50;99.90;;;;;;5114963;28;20059;-86
2023/03/10 10:51:31;;;;;;;30.45;12.82;;;2.50;99.90;;;;;;5113764;28;20051;-86
2023/03/10 10:54:19;;;;;;;30.20;11.93;;;2.60;99.90;;;;;;5085055;28;20054;-86
2023/03/10 10:57:17;;;;;;;31.15;13.00;;;2.70;99.90;;;;;;5122335;28;20051;-86
2023/03/10 11:00:24;;;;;;;27.02;11.52;;;2.70;99.90;;;;;;5101718;28;20062;-86
2023/03/10 11:03:19;;;;;;;24.33;12.35;;;2.80;99.90;;;;;;5115193;28;20081;-85
2023/03/10 11:06:13;;;;;;;24.40;10.93;;;2.90;99.90;;;;;;5112470;28;20130;-85
2023/03/10 11:09:10;;;;;;;24.48;10.73;;;2.80;99.90;;;;;;5108517;28;20473;-87
2023/03/10 11:12:16;;;;;;;21.20;8.77;;;2.80;99.90;;;;;;5126491;28;20454;-86
2023/03/10 11:15:17;;;;;;;21.83;8.95;;;2.70;99.90;;;;;;5124797;28;20055;-87
2023/03/10 11:18:06;;;;;;;29.02;10.23;;;2.60;99.90;;;;;;5108159;28;20055;-88
2023/03/10 11:21:10;;;;;;;29.35;10.75;;;2.70;99.90;;;;;;5122303;28;20040;-87
2023/03/10 11:24:34;;;;;;;27.05;10.07;;;2.70;99.90;;;;;;5114356;28;20138;-87
2023/03/10 11:27:58;;;;;;;21.02;10.40;;;2.70;99.90;;;;;;5019398;28;20046;-87
2023/03/10 11:30:54;;;;;;;23.15;8.18;;;2.60;99.90;;;;;;5118578;28;20059;-85
2023/03/10 11:33:53;;;;;;;18.90;8.27;;;2.60;99.90;;;;;;5101483;28;20062;-86
2023/03/10 11:36:54;;;;;;;26.42;11.02;;;2.60;99.90;;;;;;5098773;28;20039;-85
2023/03/10 11:40:16;;;;;;;18.92;9.60;;;2.60;99.90;;;;;;5109007;28;20079;-87
2023/03/10 11:43:14;;;;;;;24.88;11.00;;;2.60;99.90;;;;;;5101382;28;20043;-87
2023/03/10 11:46:28;;;;;;;27.90;12.43;;;2.60;99.90;;;;;;5098523;28;20040;-86
2023/03/10 11:49:15;;;;;;;28.45;10.77;;;2.70;99.90;;;;;;5070321;28;20457;-86
2023/03/10 11:52:15;;;;;;;25.30;10.15;;;2.80;99.90;;;;;;5111702;28;20058;-87
2023/03/10 11:55:11;;;;;;;23.02;8.85;;;2.80;99.90;;;;;;5098932;28;20614;-87
2023/03/10 11:57:59;;;;;;;22.60;9.85;;;2.90;99.90;;;;;;5110299;28;20158;-86
2023/03/10 12:00:46;;;;;;;23.35;8.73;;;2.90;99.90;;;;;;5113618;28;20136;-87
2023/03/10 12:03:47;;;;;;;30.45;11.82;;;2.90;99.90;;;;;;5092698;28;20055;-86
2023/03/10 12:06:58;;;;;;;25.38;10.05;;;3.00;99.90;;;;;;5113492;28;20053;-86
2023/03/10 12:09:50;;;;;;;21.27;9.43;;;3.00;99.90;;;;;;5092803;28;20112;-87
2023/03/10 12:12:38;;;;;;;18.13;8.93;;;3.00;99.90;;;;;;5091965;28;20198;-88
2023/03/10 12:15:29;;;;;;;20.92;9.98;;;3.10;99.90;;;;;;5099737;28;20138;-85
2023/03/10 12:18:15;;;;;;;24.13;8.07;;;3.10;99.90;;;;;;5109888;28;20047;-86
2023/03/10 12:21:27;;;;;;;14.60;7.53;;;3.20;99.90;;;;;;5111806;28;20124;-84
2023/03/10 12:24:45;;;;;;;21.92;8.40;;;3.20;99.90;;;;;;5112639;28;20089;-85
2023/03/10 12:28:06;;;;;;;19.55;9.27;;;3.20;99.90;;;;;;5080514;28;20051;-85
2023/03/10 12:31:10;;;;;;;24.90;9.60;;;3.30;99.90;;;;;;5099724;28;20054;-85
2023/03/10 12:34:22;;;;;;;20.10;7.85;;;3.30;99.90;;;;;;5081027;28;20044;-86
2023/03/10 12:37:20;;;;;;;26.10;11.10;;;3.30;99.90;;;;;;5094134;28;20055;-85
2023/03/10 12:40:45;;;;;;;21.88;9.27;;;3.30;99.90;;;;;;5079833;28;20047;-86
2023/03/10 12:43:56;;;;;;;23.23;9.13;;;3.30;99.90;;;;;;5080634;28;20422;-86
2023/03/10 12:46:47;;;;;;;20.80;11.30;;;3.20;99.90;;;;;;5097194;28;20047;-85
2023/03/10 12:49:47;;;;;;;21.20;9.35;;;3.20;99.90;;;;;;5093238;28;20059;-85
2023/03/10 12:52:43;;;;;;;19.90;8.73;;;3.10;99.90;;;;;;5092425;28;20500;-85
2023/03/10 12:55:30;;;;;;;19.00;8.10;;;3.10;99.90;;;;;;5112751;28;20047;-85
2023/03/10 12:58:24;;;;;;;16.67;7.82;;;3.10;99.90;;;;;;5111645;28;20594;-86
2023/03/10 13:01:15;;;;;;;15.70;6.38;;;3.00;99.90;;;;;;5102088;28;20083;-86
2023/03/10 13:04:05;;;;;;;19.40;7.70;;;3.00;99.90;;;;;;5117201;28;20122;-86
2023/03/10 13:06:55;;;;;;;19.70;7.13;;;3.00;99.90;;;;;;5116692;28;20043;-86
2023/03/10 13:09:46;;;;;;;12.60;5.75;;;3.00;99.90;;;;;;5098645;28;20101;-86
2023/03/10 13:12:58;;;;;;;16.15;6.72;;;3.00;99.90;;;;;;5095560;28;20373;-87
2023/03/10 13:15:57;;;;;;;14.77;7.00;;;3.00;99.90;;;;;;5088266;28;20048;-86
2023/03/10 13:18:51;;;;;;;18.67;7.45;;;3.00;99.90;;;;;;5099094;28;20055;-86
2023/03/10 13:21:38;;;;;;;17.80;8.43;;;3.10;99.90;;;;;;5112488;28;20492;-86
2023/03/10 13:24:29;;;;;;;31.15;10.65;;;3.20;99.90;;;;;;5114726;28;20426;-87
2023/03/10 13:27:18;;;;;;;19.55;8.02;;;3.20;99.90;;;;;;5094745;28;20086;-86
2023/03/10 13:30:12;;;;;;;19.65;7.93;;;3.20;99.90;;;;;;5113051;28;20142;-85
2023/03/10 13:33:01;;;;;;;21.35;8.73;;;3.20;99.90;;;;;;5119041;28;20054;-86
2023/03/10 13:35:47;;;;;;;22.85;9.10;;;3.20;99.90;;;;;;5101872;28;20082;-85
2023/03/10 13:38:33;;;;;;;25.27;9.35;;;3.20;99.90;;;;;;5097047;28;20487;-86
2023/03/10 13:41:19;;;;;;;18.25;7.78;;;3.20;99.90;;;;;;5097837;28;20179;-87
2023/03/10 13:44:14;;;;;;;20.52;9.35;;;3.20;99.90;;;;;;5097355;28;20100;-85
2023/03/10 13:47:10;;;;;;;19.25;9.73;;;3.20;99.90;;;;;;5116985;28;20055;-86
2023/03/10 13:50:01;;;;;;;19.00;8.70;;;3.20;99.90;;;;;;5095714;28;20427;-86
2023/03/10 13:52:56;;;;;;;23.50;9.98;;;3.20;99.90;;;;;;5098424;28;20107;-87
2023/03/10 13:55:42;;;;;;;16.50;8.07;;;3.10;99.90;;;;;;5078877;28;20472;-88
2023/03/10 13:58:28;;;;;;;16.67;7.95;;;3.20;99.90;;;;;;5075095;28;20048;-87
2023/03/10 14:01:24;;;;;;;15.77;7.25;;;3.20;99.90;;;;;;5094439;28;20051;-86
2023/03/10 14:04:37;;;;;;;10.80;4.38;;;3.20;99.90;;;;;;5071831;28;20526;-85
2023/03/10 14:07:24;;;;;;;6.68;3.33;;;3.20;99.90;;;;;;5096616;28;20048;-85
2023/03/10 14:10:13;;;;;;;9.43;2.53;;;3.10;99.90;;;;;;5080284;28;20056;-86
2023/03/10 14:12:59;;;;;;;4.50;2.17;;;3.00;99.90;;;;;;5101527;28;20055;-86
2023/03/10 14:15:53;;;;;;;11.88;4.22;;;2.90;99.90;;;;;;5101542;28;20371;-87
2023/03/10 14:18:41;;;;;;;7.38;3.72;;;2.90;99.90;;;;;;5103355;28;20083;-85
2023/03/10 14:21:33;;;;;;;9.07;4.20;;;2.80;99.90;;;;;;5082371;28;20040;-87
2023/03/10 14:24:19;;;;;;;13.43;6.13;;;2.80;99.90;;;;;;5098041;28;20047;-87
2023/03/10 14:27:09;;;;;;;17.13;7.53;;;2.80;99.90;;;;;;5096840;28;20048;-86
2023/03/10 14:29:59;;;;;;;17.30;6.57;;;2.90;99.90;;;;;;5100238;28;20106;-88
2023/03/10 14:32:45;;;;;;;17.30;7.97;;;2.90;99.90;;;;;;5105355;28;20040;-87
2023/03/10 14:35:31;;;;;;;21.50;9.07;;;2.90;99.90;;;;;;5100040;28;20048;-87